Time;durP1;ratioP1;P1;durP2;ratioP2;P2;SDS_P1;SDS_P2;PMS_P1;PMS_P2;Temp;Humidity;BMP_temperature;BMP_pressure;BME280_temperature;BME280_humidity;BME280_pressure;Samples;Min_cycle;Max_cycle;Signal;HPM_P1;HPM_P2
2022/04/01 00:01:13;;;;;;;26.90;20.15;;;6.60;67.60;;;;;;5049318;28;20164;-43
2022/04/01 00:03:42;;;;;;;28.10;22.10;;;6.70;67.80;;;;;;5061026;28;20438;-44
2022/04/01 00:06:09;;;;;;;29.33;22.63;;;6.70;67.70;;;;;;5055578;28;20568;-44
2022/04/01 00:08:36;;;;;;;28.38;21.25;;;6.70;67.50;;;;;;5064876;28;20086;-46
2022/04/01 00:11:02;;;;;;;27.73;21.00;;;6.70;67.50;;;;;;5052977;28;20052;-48
2022/04/01 00:13:34;;;;;;;29.48;21.85;;;6.70;67.70;;;;;;5065033;28;20040;-48
2022/04/01 00:16:03;;;;;;;31.20;23.00;;;6.70;67.70;;;;;;5061563;28;20040;-47
2022/04/01 00:18:33;;;;;;;27.60;22.35;;;6.70;67.60;;;;;;5051370;28;20489;-47
2022/04/01 00:21:03;;;;;;;28.25;21.65;;;6.70;67.60;;;;;;5049493;28;20128;-48
2022/04/01 00:23:32;;;;;;;26.45;20.90;;;6.70;67.60;;;;;;5070446;28;20036;-48
2022/04/01 00:25:59;;;;;;;25.90;20.58;;;6.70;67.60;;;;;;5071315;28;20090;-45
2022/04/01 00:28:28;;;;;;;25.90;20.88;;;6.70;67.50;;;;;;5063346;28;20040;-48
2022/04/01 00:30:55;;;;;;;26.02;20.35;;;6.70;67.60;;;;;;5066850;28;20744;-48
2022/04/01 00:33:25;;;;;;;22.65;19.48;;;6.70;67.70;;;;;;5072272;28;20048;-49
2022/04/01 00:35:56;;;;;;;25.77;20.20;;;6.70;67.60;;;;;;5063278;28;20124;-44
2022/04/01 00:38:28;;;;;;;26.70;19.40;;;6.70;67.50;;;;;;5058342;28;20522;-45
2022/04/01 00:40:59;;;;;;;23.85;20.10;;;6.70;67.60;;;;;;5061245;28;20032;-44
2022/04/01 00:43:28;;;;;;;24.52;18.98;;;6.70;67.50;;;;;;5064543;28;20045;-46
2022/04/01 00:45:57;;;;;;;24.38;18.85;;;6.60;67.40;;;;;;5070481;28;20127;-45
2022/04/01 00:48:27;;;;;;;22.67;18.85;;;6.70;67.50;;;;;;5053185;28;20071;-48
2022/04/01 00:50:59;;;;;;;24.60;17.98;;;6.70;67.60;;;;;;5062061;28;20048;-47
2022/04/01 00:53:27;;;;;;;23.80;18.75;;;6.60;67.50;;;;;;5070564;28;20094;-44
2022/04/01 00:55:54;;;;;;;25.13;18.92;;;6.70;67.40;;;;;;5055016;28;20743;-48
2022/04/01 00:58:23;;;;;;;24.23;18.67;;;6.70;67.20;;;;;;5050329;28;20071;-48
2022/04/01 01:00:53;;;;;;;20.77;16.95;;;6.70;67.40;;;;;;5060108;28;20426;-45
2022/04/01 01:03:21;;;;;;;21.08;16.25;;;6.60;67.40;;;;;;5070637;28;20052;-46
2022/04/01 01:05:53;;;;;;;21.45;17.38;;;6.60;67.40;;;;;;5055825;28;20041;-48
2022/04/01 01:08:22;;;;;;;20.00;16.02;;;6.60;67.40;;;;;;5066376;28;20527;-47
2022/04/01 01:10:49;;;;;;;22.30;17.40;;;6.60;67.30;;;;;;5062228;28;20041;-44
2022/04/01 01:13:18;;;;;;;22.10;17.33;;;6.60;67.40;;;;;;5058733;28;20075;-47
2022/04/01 01:15:47;;;;;;;19.60;16.13;;;6.60;67.50;;;;;;5049200;28;20041;-48
2022/04/01 01:18:22;;;;;;;20.60;17.88;;;6.60;67.50;;;;;;5056922;28;20644;-43
2022/04/01 01:20:52;;;;;;;23.17;16.67;;;6.60;67.60;;;;;;5066829;28;20062;-44
2022/04/01 01:23:33;;;;;;;19.55;16.48;;;6.60;67.50;;;;;;5071239;28;20068;-48
2022/04/01 01:26:03;;;;;;;17.40;13.82;;;6.60;67.60;;;;;;5051944;28;20488;-45
2022/04/01 01:28:32;;;;;;;15.73;13.75;;;6.60;67.40;;;;;;5059262;28;20047;-44
2022/04/01 01:30:59;;;;;;;16.48;13.18;;;6.60;67.30;;;;;;5069691;28;20052;-48
2022/04/01 01:33:26;;;;;;;16.67;13.88;;;6.50;67.30;;;;;;5051349;28;20098;-47
2022/04/01 01:35:54;;;;;;;17.73;14.00;;;6.50;67.10;;;;;;5047931;28;20045;-47
2022/04/01 01:38:21;;;;;;;20.15;14.75;;;6.50;67.10;;;;;;5068637;28;20488;-49
2022/04/01 01:40:50;;;;;;;18.60;15.45;;;6.50;67.10;;;;;;5070871;28;20041;-45
2022/04/01 01:43:21;;;;;;;17.83;15.38;;;6.50;67.10;;;;;;5056911;28;20378;-47
2022/04/01 01:45:48;;;;;;;18.50;14.77;;;6.40;67.30;;;;;;5065275;28;20029;-44
2022/04/01 01:48:18;;;;;;;17.80;15.57;;;6.40;67.60;;;;;;5070744;28;20066;-44
2022/04/01 01:56:25;;;;;;;16.92;14.68;;;6.40;67.50;;;;;;5058600;28;20238;-47
2022/04/01 01:59:04;;;;;;;19.52;15.35;;;6.40;67.50;;;;;;5068877;28;20075;-44
2022/04/01 02:01:31;;;;;;;17.00;14.82;;;6.40;67.40;;;;;;5069543;28;20045;-45
2022/04/01 02:04:01;;;;;;;18.63;15.10;;;6.40;67.50;;;;;;5055851;28;20041;-46
2022/04/01 02:06:28;;;;;;;19.98;15.60;;;6.40;67.50;;;;;;5055763;28;20047;-46
2022/04/01 02:08:57;;;;;;;17.83;14.52;;;6.30;67.40;;;;;;5068983;28;20037;-49
2022/04/01 02:11:25;;;;;;;17.80;14.77;;;6.40;67.40;;;;;;5048144;28;20119;-45
2022/04/01 02:13:57;;;;;;;17.33;14.90;;;6.30;67.40;;;;;;5046203;28;20053;-44
2022/04/01 02:16:26;;;;;;;19.85;14.20;;;6.30;67.60;;;;;;5053957;28;20037;-44
2022/04/01 02:18:53;;;;;;;19.02;14.40;;;6.30;67.50;;;;;;5068837;28;20044;-44
2022/04/01 02:21:21;;;;;;;15.23;13.40;;;6.30;67.60;;;;;;5066803;28;20033;-45
2022/04/01 02:23:51;;;;;;;16.77;13.60;;;6.30;67.60;;;;;;5055144;28;20044;-45
2022/04/01 02:26:22;;;;;;;19.40;14.88;;;6.30;67.60;;;;;;5067543;28;20044;-45
2022/04/01 02:28:50;;;;;;;16.88;14.35;;;6.30;67.60;;;;;;5068205;28;20114;-44
2022/04/01 02:31:30;;;;;;;17.90;14.27;;;6.30;67.60;;;;;;5048143;28;20464;-49
2022/04/01 02:34:20;;;;;;;17.27;14.13;;;6.30;67.90;;;;;;5055326;28;20114;-48
2022/04/01 02:36:49;;;;;;;15.07;13.52;;;6.30;67.70;;;;;;5066888;28;20049;-48
2022/04/01 02:39:17;;;;;;;14.07;12.57;;;6.30;67.70;;;;;;5062296;28;20040;-49
2022/04/01 02:41:44;;;;;;;14.95;13.40;;;6.20;67.60;;;;;;5060530;28;20578;-44
2022/04/01 02:44:14;;;;;;;15.18;13.65;;;6.20;67.40;;;;;;5061495;28;20040;-49
2022/04/01 02:46:43;;;;;;;14.95;12.98;;;6.20;67.40;;;;;;5067481;28;20155;-47
2022/04/01 02:49:21;;;;;;;16.73;12.25;;;6.20;67.40;;;;;;5045216;28;20041;-49
2022/04/01 02:52:02;;;;;;;13.60;11.73;;;6.20;67.50;;;;;;5051203;28;20049;-47
2022/04/01 02:54:38;;;;;;;15.80;12.63;;;6.20;67.20;;;;;;5068416;28;20064;-47
2022/04/01 02:57:05;;;;;;;16.60;11.85;;;6.20;67.40;;;;;;5051009;28;20041;-48
2022/04/01 02:59:32;;;;;;;13.65;12.05;;;6.20;67.40;;;;;;5054586;28;20036;-46
2022/04/01 03:02:02;;;;;;;14.18;12.25;;;6.20;67.40;;;;;;5067822;28;20066;-47
2022/04/01 03:04:32;;;;;;;13.57;11.90;;;6.10;67.40;;;;;;5068821;28;20052;-48
2022/04/01 03:07:00;;;;;;;12.32;11.07;;;6.10;67.30;;;;;;5065234;28;20063;-49
2022/04/01 03:09:29;;;;;;;11.70;9.85;;;6.10;67.40;;;;;;5052433;28;20503;-49
2022/04/01 03:12:15;;;;;;;10.57;8.98;;;6.10;67.30;;;;;;5055624;28;20071;-47
2022/04/01 03:14:48;;;;;;;9.73;8.73;;;6.10;67.20;;;;;;5068013;28;20132;-45
2022/04/01 03:17:33;;;;;;;8.95;8.02;;;6.10;67.10;;;;;;5041206;28;20052;-49
2022/04/01 03:20:18;;;;;;;9.52;8.52;;;6.10;66.80;;;;;;5058326;28;20527;-46
2022/04/01 03:22:48;;;;;;;9.27;8.38;;;6.00;66.80;;;;;;5068428;28;20466;-49
2022/04/01 03:25:20;;;;;;;9.57;8.32;;;6.00;66.80;;;;;;5061991;28;20394;-46
2022/04/01 03:28:13;;;;;;;;;;;6.00;66.80;;;;;;5046920;28;20109;-45
2022/04/01 03:30:44;;;;;;;8.45;7.53;;;6.00;67.10;;;;;;5057693;28;19942;-46
2022/04/01 03:33:18;;;;;;;9.57;8.23;;;6.00;66.50;;;;;;5072294;28;20044;-46
2022/04/01 03:35:49;;;;;;;8.70;7.80;;;6.00;66.60;;;;;;5070554;28;20071;-45
2022/04/01 03:38:20;;;;;;;9.10;8.10;;;5.90;66.80;;;;;;5051347;28;20038;-45
2022/04/01 03:40:51;;;;;;;8.63;7.65;;;5.90;66.80;;;;;;5058395;28;20044;-45
2022/04/01 03:43:22;;;;;;;8.82;7.28;;;5.90;66.70;;;;;;5060413;28;20048;-48
2022/04/01 03:45:53;;;;;;;8.98;8.07;;;5.90;66.70;;;;;;5045047;28;20040;-44
2022/04/01 03:48:45;;;;;;;9.07;8.18;;;5.90;66.80;;;;;;5058263;28;20045;-44
2022/04/01 03:51:25;;;;;;;8.88;7.55;;;5.90;66.80;;;;;;5055438;28;20040;-45
2022/04/01 03:54:05;;;;;;;8.68;7.88;;;5.90;67.00;;;;;;5071748;28;20072;-44
2022/04/01 03:57:00;;;;;;;8.02;6.78;;;5.90;66.90;;;;;;5055897;28;20135;-48
2022/04/01 03:59:41;;;;;;;7.30;6.65;;;5.90;66.70;;;;;;5073002;28;20126;-45
2022/04/01 04:02:28;;;;;;;7.80;7.00;;;5.90;66.70;;;;;;5072000;28;20133;-48
2022/04/01 04:04:56;;;;;;;7.97;7.18;;;5.80;66.50;;;;;;5051674;28;20038;-45
2022/04/01 04:07:27;;;;;;;9.95;7.90;;;5.80;66.60;;;;;;5062101;28;20052;-48
2022/04/01 04:10:00;;;;;;;8.57;7.78;;;5.80;66.60;;;;;;5069819;28;20531;-45
2022/04/01 04:12:33;;;;;;;8.80;7.90;;;5.80;66.50;;;;;;5056676;28;20052;-44
2022/04/01 04:15:07;;;;;;;9.02;8.13;;;5.80;66.50;;;;;;5047496;28;20077;-44
2022/04/01 04:17:37;;;;;;;8.63;7.70;;;5.80;66.60;;;;;;5065270;28;20048;-49
2022/04/01 04:20:13;;;;;;;8.30;7.50;;;5.80;66.70;;;;;;5047726;28;20080;-48
2022/04/01 04:22:59;;;;;;;9.48;7.97;;;5.80;66.70;;;;;;5047622;28;20501;-46
2022/04/01 04:25:35;;;;;;;7.70;6.97;;;5.80;66.70;;;;;;5047496;28;20045;-49
2022/04/01 04:28:10;;;;;;;8.95;7.60;;;5.80;66.70;;;;;;5051566;28;20045;-45
2022/04/01 04:30:50;;;;;;;7.53;6.82;;;5.80;66.70;;;;;;5057265;28;20522;-45
2022/04/01 04:33:44;;;;;;;7.50;6.80;;;5.80;66.50;;;;;;5043624;28;20052;-45
2022/04/01 04:36:17;;;;;;;7.07;6.40;;;5.80;66.40;;;;;;5048712;28;20043;-48
2022/04/01 04:38:55;;;;;;;6.95;6.25;;;5.80;66.40;;;;;;5059731;28;20411;-46
2022/04/01 04:41:23;;;;;;;7.10;6.43;;;5.80;66.30;;;;;;5049518;28;20048;-47
2022/04/01 04:44:01;;;;;;;7.78;6.78;;;5.80;66.30;;;;;;5038030;28;20051;-46
2022/04/01 04:46:30;;;;;;;7.07;6.47;;;5.80;66.20;;;;;;5056241;28;20049;-44
2022/04/01 04:48:58;;;;;;;7.32;6.63;;;5.80;66.20;;;;;;5041918;28;20512;-48
2022/04/01 04:51:28;;;;;;;7.88;7.15;;;5.80;66.20;;;;;;5048906;28;20041;-45
2022/04/01 04:54:22;;;;;;;7.15;6.55;;;5.80;66.20;;;;;;5048104;28;20102;-48
2022/04/01 04:57:08;;;;;;;7.85;7.15;;;5.80;66.00;;;;;;5044578;28;20571;-46
2022/04/01 04:59:35;;;;;;;7.05;6.35;;;5.80;66.00;;;;;;5047138;28;20500;-49
2022/04/01 05:02:09;;;;;;;6.90;6.07;;;5.70;66.00;;;;;;5044804;28;20479;-48
2022/04/01 05:04:58;;;;;;;7.28;6.57;;;5.80;66.00;;;;;;5047527;28;20076;-48
2022/04/01 05:07:45;;;;;;;6.97;6.38;;;5.70;65.80;;;;;;5038163;28;20045;-46
2022/04/01 05:10:41;;;;;;;7.70;6.93;;;5.70;65.90;;;;;;5044390;28;20055;-48
2022/04/01 05:13:31;;;;;;;7.75;6.97;;;5.70;65.80;;;;;;5044224;28;20576;-48
2022/04/01 05:16:43;;;;;;;7.93;6.90;;;5.70;66.00;;;;;;5040482;28;20056;-48
2022/04/01 05:19:12;;;;;;;8.30;7.50;;;5.70;66.00;;;;;;5031953;28;20074;-48
2022/04/01 05:22:08;;;;;;;8.60;7.70;;;5.70;65.90;;;;;;5051224;28;20050;-45
2022/04/01 05:24:55;;;;;;;9.48;8.57;;;5.70;66.20;;;;;;5051346;28;20545;-49
2022/04/01 05:27:30;;;;;;;10.95;9.10;;;5.70;65.80;;;;;;5054315;28;20446;-48
2022/04/01 05:30:12;;;;;;;10.77;9.68;;;5.70;66.10;;;;;;5067468;28;20070;-46
2022/04/01 05:32:52;;;;;;;10.88;9.70;;;5.70;66.10;;;;;;5070263;28;20052;-45
2022/04/01 05:35:20;;;;;;;10.50;9.45;;;5.70;66.10;;;;;;5040292;28;20416;-44
2022/04/01 05:37:48;;;;;;;11.85;9.23;;;5.70;66.10;;;;;;5045717;28;20116;-49
2022/04/01 05:40:18;;;;;;;10.63;9.52;;;5.70;66.00;;;;;;5048177;28;20036;-47
2022/04/01 05:42:47;;;;;;;11.20;9.57;;;5.70;66.10;;;;;;5064549;28;20059;-49
2022/04/01 05:45:37;;;;;;;9.57;8.57;;;5.70;66.10;;;;;;5069636;28;20051;-45
2022/04/01 05:48:12;;;;;;;8.52;7.63;;;5.70;66.00;;;;;;5061579;28;20068;-46
2022/04/01 05:50:39;;;;;;;8.80;7.93;;;5.60;65.90;;;;;;5050970;28;20136;-48
2022/04/01 05:53:08;;;;;;;10.07;7.93;;;5.60;65.90;;;;;;5052963;28;20049;-47
2022/04/01 05:55:50;;;;;;;8.73;7.20;;;5.60;66.00;;;;;;5057013;28;20037;-47
2022/04/01 05:58:17;;;;;;;9.63;8.63;;;5.60;66.00;;;;;;5045548;28;20114;-48
2022/04/01 06:01:13;;;;;;;10.13;8.98;;;5.70;66.00;;;;;;5058535;28;20541;-46
2022/04/01 06:03:59;;;;;;;9.75;8.77;;;5.70;66.10;;;;;;5055136;28;20047;-46
2022/04/01 06:06:40;;;;;;;10.85;8.80;;;5.60;65.90;;;;;;5071888;28;20047;-48
2022/04/01 06:09:27;;;;;;;9.57;8.07;;;5.70;66.00;;;;;;5025190;28;20049;-45
2022/04/01 06:12:17;;;;;;;8.48;7.57;;;5.70;66.20;;;;;;5049266;28;20046;-49
2022/04/01 06:15:41;;;;;;;8.98;7.72;;;5.70;66.00;;;;;;5055012;28;20050;-45
2022/04/01 06:18:37;;;;;;;8.82;7.65;;;5.70;66.30;;;;;;5059585;28;20051;-43
2022/04/01 06:21:04;;;;;;;9.07;7.55;;;5.70;66.00;;;;;;5062927;28;20053;-45
2022/04/01 06:23:49;;;;;;;9.70;8.35;;;5.70;65.90;;;;;;5042849;28;20043;-48
2022/04/01 06:26:17;;;;;;;10.13;8.50;;;5.70;65.90;;;;;;5048366;28;20044;-47
2022/04/01 06:29:00;;;;;;;9.45;8.20;;;5.70;65.60;;;;;;5054837;28;20048;-46
2022/04/01 06:31:31;;;;;;;9.13;7.47;;;5.70;65.70;;;;;;5063202;28;20127;-47
2022/04/01 06:34:14;;;;;;;8.30;7.28;;;5.70;65.60;;;;;;5070665;28;20052;-43
2022/04/01 06:37:03;;;;;;;8.18;6.70;;;5.70;65.60;;;;;;5044423;28;20181;-49
2022/04/01 06:39:58;;;;;;;8.77;7.03;;;5.80;65.60;;;;;;5041187;28;20080;-49
2022/04/01 06:42:37;;;;;;;7.97;6.97;;;5.80;65.70;;;;;;5038626;28;20061;-44
2022/04/01 06:45:27;;;;;;;10.13;7.05;;;5.80;65.60;;;;;;4995469;28;20076;-49
2022/04/01 06:48:12;;;;;;;7.22;5.90;;;5.70;65.50;;;;;;5044548;28;20056;-47
2022/04/01 06:50:58;;;;;;;8.35;7.00;;;5.80;65.50;;;;;;5040370;28;20159;-45
2022/04/01 06:53:44;;;;;;;8.13;7.22;;;5.80;65.50;;;;;;5043032;28;20566;-48
2022/04/01 06:56:46;;;;;;;8.00;6.97;;;5.80;65.20;;;;;;5019764;28;20057;-45
2022/04/01 06:59:15;;;;;;;10.35;6.90;;;5.80;65.00;;;;;;5055301;28;20044;-44
2022/04/01 07:01:42;;;;;;;7.82;6.72;;;5.80;65.10;;;;;;5063097;28;20033;-46
2022/04/01 07:04:09;;;;;;;8.98;6.65;;;5.80;65.00;;;;;;5067664;28;20412;-48
2022/04/01 07:06:36;;;;;;;7.32;6.50;;;5.80;64.90;;;;;;5048768;28;20037;-46
2022/04/01 07:09:03;;;;;;;7.88;6.35;;;5.80;65.00;;;;;;5049856;28;20416;-44
2022/04/01 07:11:30;;;;;;;7.80;6.97;;;5.80;65.00;;;;;;5055270;28;20051;-49
2022/04/01 07:13:57;;;;;;;7.10;6.40;;;5.80;64.90;;;;;;5051583;28;20042;-47
2022/04/01 07:16:23;;;;;;;9.98;6.70;;;5.80;64.90;;;;;;5050609;28;20041;-46
2022/04/01 07:18:50;;;;;;;9.18;6.70;;;5.80;64.90;;;;;;5046287;28;20061;-49
2022/04/01 07:21:17;;;;;;;7.57;6.47;;;5.80;65.20;;;;;;5052294;28;20565;-49
2022/04/01 07:23:44;;;;;;;7.63;6.50;;;5.80;64.80;;;;;;5053694;28;20077;-47
2022/04/01 07:26:11;;;;;;;7.85;6.18;;;5.80;64.90;;;;;;5054182;28;20504;-48
2022/04/01 07:28:37;;;;;;;7.22;6.05;;;5.80;64.70;;;;;;5043224;28;20040;-45
2022/04/01 07:34:23;;;;;;;9.23;5.57;;;5.90;64.40;;;;;;5051709;28;20040;-47
2022/04/01 07:36:49;;;;;;;7.60;5.60;;;5.80;64.30;;;;;;5047288;28;20041;-46
2022/04/01 07:39:16;;;;;;;9.18;5.93;;;5.90;64.20;;;;;;5042775;28;20034;-46
2022/04/01 07:41:43;;;;;;;8.10;5.72;;;5.80;64.20;;;;;;5057619;28;20028;-47
2022/04/01 07:44:10;;;;;;;7.30;5.40;;;5.80;64.30;;;;;;5057800;28;20094;-45
2022/04/01 07:46:37;;;;;;;7.30;6.20;;;5.80;64.10;;;;;;5064292;28;20055;-44
2022/04/01 07:49:04;;;;;;;6.28;5.45;;;5.80;63.90;;;;;;5073110;28;20037;-45
2022/04/01 07:51:31;;;;;;;6.53;5.60;;;5.80;63.80;;;;;;5060319;28;20040;-45
2022/04/01 07:53:58;;;;;;;7.32;5.43;;;5.80;63.80;;;;;;5070065;28;20094;-44
2022/04/01 07:56:30;;;;;;;7.38;5.38;;;5.80;63.90;;;;;;5042115;28;20393;-47
2022/04/01 07:58:58;;;;;;;6.82;5.22;;;5.90;64.60;;;;;;5052442;28;20519;-46
2022/04/01 08:01:29;;;;;;;7.80;5.20;;;5.90;64.00;;;;;;5067436;28;20048;-47
2022/04/01 08:03:56;;;;;;;6.50;5.25;;;5.90;64.00;;;;;;5073287;28;20052;-49
2022/04/01 08:06:25;;;;;;;7.03;5.55;;;5.90;63.90;;;;;;5055236;28;20485;-45
2022/04/01 08:08:55;;;;;;;8.32;5.63;;;5.90;63.70;;;;;;5053494;28;20094;-46
2022/04/01 08:11:23;;;;;;;7.40;5.88;;;5.90;63.50;;;;;;5062397;28;20082;-46
2022/04/01 08:13:50;;;;;;;5.97;5.20;;;5.90;63.50;;;;;;5059254;28;20041;-44
2022/04/01 08:16:16;;;;;;;9.10;5.75;;;5.90;63.50;;;;;;5041250;28;20045;-44
2022/04/01 08:18:43;;;;;;;5.70;5.05;;;5.90;63.40;;;;;;5051182;28;20045;-43
2022/04/01 08:21:10;;;;;;;7.88;5.53;;;5.90;63.20;;;;;;5051205;28;20044;-45
2022/04/01 08:23:37;;;;;;;6.47;5.75;;;5.90;63.20;;;;;;5044667;28;20041;-46
2022/04/01 08:26:04;;;;;;;7.05;4.97;;;5.90;63.20;;;;;;5044443;28;20037;-45
2022/04/01 08:28:35;;;;;;;6.47;4.95;;;5.90;63.10;;;;;;5052323;28;20045;-45
2022/04/01 08:31:03;;;;;;;6.18;5.50;;;5.90;62.90;;;;;;5051734;28;20098;-50
2022/04/01 08:33:30;;;;;;;6.30;4.97;;;5.90;62.90;;;;;;5044957;28;20042;-45
2022/04/01 08:35:59;;;;;;;9.00;5.25;;;5.90;62.90;;;;;;5051564;28;20036;-47
2022/04/01 08:38:29;;;;;;;8.10;4.90;;;5.90;62.90;;;;;;5052319;28;20040;-45
2022/04/01 08:40:56;;;;;;;6.35;4.22;;;5.90;62.90;;;;;;5071750;28;20071;-48
2022/04/01 08:43:32;;;;;;;6.85;5.18;;;5.90;62.90;;;;;;5057049;28;20407;-47
2022/04/01 08:46:03;;;;;;;7.38;5.07;;;5.90;62.90;;;;;;5041750;28;20041;-46
2022/04/01 08:48:32;;;;;;;7.38;4.80;;;5.90;62.90;;;;;;5061352;28;20033;-45
2022/04/01 08:50:59;;;;;;;7.07;4.88;;;5.90;63.00;;;;;;5068957;28;20389;-47
2022/04/01 08:53:26;;;;;;;6.18;4.43;;;6.00;63.00;;;;;;5041064;28;20601;-45
2022/04/01 08:55:56;;;;;;;5.32;3.92;;;6.00;62.90;;;;;;5050978;28;20472;-49
2022/04/01 08:58:24;;;;;;;6.13;4.47;;;6.00;62.80;;;;;;5061588;28;20047;-44
2022/04/01 09:00:52;;;;;;;5.30;4.38;;;6.00;62.60;;;;;;5072056;28;20466;-45
2022/04/01 09:03:21;;;;;;;6.07;4.43;;;6.00;62.50;;;;;;5072509;28;20040;-49
2022/04/01 09:05:54;;;;;;;4.80;4.18;;;6.00;62.40;;;;;;5047258;28;20041;-46
2022/04/01 09:08:30;;;;;;;4.57;4.07;;;6.00;62.40;;;;;;5069225;28;20124;-46
2022/04/01 09:11:01;;;;;;;7.97;4.63;;;6.00;62.60;;;;;;5055121;28;20041;-50
2022/04/01 09:13:34;;;;;;;4.70;4.13;;;6.00;62.30;;;;;;5062497;28;20041;-50
2022/04/01 09:16:02;;;;;;;5.10;3.80;;;6.00;62.30;;;;;;5059985;28;20131;-46
2022/04/01 09:18:44;;;;;;;7.18;5.03;;;6.10;62.30;;;;;;5057798;28;20067;-45
2022/04/01 09:21:13;;;;;;;6.25;4.20;;;6.10;62.10;;;;;;5058503;28;20086;-47
2022/04/01 09:23:48;;;;;;;5.68;3.17;;;6.00;62.00;;;;;;5063782;28;20171;-46
2022/04/01 09:26:27;;;;;;;5.10;3.85;;;6.10;62.20;;;;;;5055009;28;20028;-45
2022/04/01 09:28:54;;;;;;;4.95;4.40;;;6.00;62.20;;;;;;5057176;28;20044;-46
2022/04/01 09:31:34;;;;;;;5.03;4.32;;;6.00;62.20;;;;;;5071540;28;20037;-46
2022/04/01 09:34:14;;;;;;;4.68;4.20;;;6.00;62.30;;;;;;5048725;28;20133;-47
2022/04/01 09:36:44;;;;;;;5.13;4.43;;;6.00;62.30;;;;;;5056528;28;20048;-49
2022/04/01 09:39:11;;;;;;;4.70;4.20;;;6.10;62.30;;;;;;5071234;28;20837;-48
2022/04/01 09:41:45;;;;;;;5.25;4.07;;;6.10;63.00;;;;;;5064841;28;20107;-48
2022/04/01 09:44:36;;;;;;;5.20;3.83;;;6.10;62.30;;;;;;5050327;28;20088;-48
2022/04/01 09:47:05;;;;;;;4.63;4.13;;;6.10;62.10;;;;;;5054357;28;20055;-50
2022/04/01 09:49:36;;;;;;;5.25;4.32;;;6.10;61.90;;;;;;5068174;28;20041;-50
2022/04/01 09:52:12;;;;;;;7.55;5.22;;;6.10;61.80;;;;;;5051222;28;20041;-50
2022/04/01 09:54:46;;;;;;;5.13;4.65;;;6.10;61.80;;;;;;5054604;28;20546;-49
2022/04/01 09:57:17;;;;;;;6.63;4.85;;;6.00;61.80;;;;;;5061657;28;20033;-48
2022/04/01 09:59:49;;;;;;;5.93;4.75;;;6.00;61.90;;;;;;5071228;28;20070;-49
2022/04/01 10:02:16;;;;;;;7.22;5.53;;;6.00;61.90;;;;;;5047536;28;20747;-48
2022/04/01 10:04:42;;;;;;;6.45;4.70;;;6.00;62.00;;;;;;5050239;28;20662;-50
2022/04/01 10:07:10;;;;;;;6.88;4.97;;;5.90;62.00;;;;;;5068766;28;20036;-47
2022/04/01 10:09:40;;;;;;;5.20;4.47;;;5.90;62.00;;;;;;5053460;28;20041;-47
2022/04/01 10:12:29;;;;;;;6.07;5.10;;;5.90;62.30;;;;;;5055242;28;20060;-44
2022/04/01 10:15:02;;;;;;;5.50;4.35;;;5.90;62.30;;;;;;5066887;28;20036;-47
2022/04/01 10:17:52;;;;;;;4.80;4.13;;;5.90;62.20;;;;;;5050275;28;20120;-48
2022/04/01 10:20:21;;;;;;;5.15;4.28;;;5.90;62.00;;;;;;5048503;28;20564;-44
2022/04/01 10:22:48;;;;;;;5.63;4.53;;;5.90;62.10;;;;;;5061823;28;20405;-48
2022/04/01 10:25:53;;;;;;;4.03;3.63;;;5.90;62.00;;;;;;5070136;28;20029;-49
2022/04/01 10:28:22;;;;;;;4.63;3.40;;;5.90;61.70;;;;;;5062364;28;20037;-49
2022/04/01 10:30:55;;;;;;;5.38;3.78;;;6.00;61.80;;;;;;5064538;28;20052;-48
2022/04/01 10:33:31;;;;;;;5.03;3.22;;;5.90;62.20;;;;;;5070947;28;20470;-50
2022/04/01 10:35:58;;;;;;;5.68;3.47;;;5.90;61.60;;;;;;5043126;28;20076;-46
2022/04/01 10:38:31;;;;;;;4.85;3.85;;;5.90;61.60;;;;;;5037291;28;20094;-44
2022/04/01 10:41:12;;;;;;;4.63;3.67;;;5.90;61.60;;;;;;5056763;28;20083;-47
2022/04/01 10:43:42;;;;;;;4.53;3.53;;;6.00;61.50;;;;;;5070573;28;20040;-45
2022/04/01 10:46:17;;;;;;;4.68;3.88;;;6.00;61.60;;;;;;5053131;28;20056;-46
2022/04/01 10:52:21;;;;;;;3.67;3.13;;;6.10;61.30;;;;;;5026893;28;20049;-48
2022/04/01 10:55:07;;;;;;;4.63;4.15;;;6.20;61.20;;;;;;5046768;28;20458;-48
2022/04/01 10:57:47;;;;;;;3.90;2.92;;;6.20;61.10;;;;;;5039386;28;20056;-47
2022/04/01 11:00:17;;;;;;;3.75;2.95;;;6.20;60.50;;;;;;5047375;28;20573;-50
2022/04/01 11:02:45;;;;;;;5.68;3.53;;;6.30;60.70;;;;;;5063656;28;20036;-46
2022/04/01 11:05:23;;;;;;;3.45;2.80;;;6.20;60.70;;;;;;5057563;28;20045;-46
2022/04/01 11:08:20;;;;;;;3.65;3.35;;;6.20;60.30;;;;;;5054369;28;20056;-49
2022/04/01 11:11:09;;;;;;;3.90;3.53;;;6.30;60.00;;;;;;5069813;28;20032;-50
2022/04/01 11:13:37;;;;;;;6.80;3.28;;;6.30;60.10;;;;;;5059041;28;20045;-46
2022/04/01 11:16:22;;;;;;;5.28;3.45;;;6.30;60.20;;;;;;5055631;28;20049;-47
2022/04/01 11:19:18;;;;;;;5.47;3.67;;;6.30;59.60;;;;;;5046805;28;20048;-46
2022/04/01 11:21:47;;;;;;;5.18;3.30;;;6.30;59.70;;;;;;5069990;28;20439;-48
2022/04/01 11:24:29;;;;;;;3.80;3.33;;;6.30;59.90;;;;;;5069853;28;20051;-48
2022/04/01 11:27:07;;;;;;;3.92;3.55;;;6.30;60.00;;;;;;5054410;28;20033;-46
2022/04/01 11:29:34;;;;;;;4.18;3.55;;;6.30;59.90;;;;;;5064821;28;20041;-47
2022/04/01 11:32:08;;;;;;;5.60;3.63;;;6.30;59.90;;;;;;5069864;28;20044;-47
2022/04/01 11:34:57;;;;;;;4.57;4.10;;;6.30;60.00;;;;;;5039958;28;20110;-46
2022/04/01 11:37:25;;;;;;;4.82;3.78;;;6.30;58.80;;;;;;5055957;28;20041;-46
2022/04/01 11:39:52;;;;;;;4.70;3.53;;;6.30;59.70;;;;;;5069468;28;20041;-46
2022/04/01 11:42:20;;;;;;;5.97;3.80;;;6.30;59.80;;;;;;5069864;28;20484;-49
2022/04/01 11:44:55;;;;;;;4.40;4.00;;;6.30;59.80;;;;;;5059864;28;20037;-46
2022/04/01 11:47:37;;;;;;;4.68;3.90;;;6.30;59.60;;;;;;5053698;28;20044;-45
2022/04/01 11:50:12;;;;;;;5.53;4.25;;;6.30;59.60;;;;;;5069743;28;20049;-45
2022/04/01 11:52:49;;;;;;;4.40;3.92;;;6.30;59.80;;;;;;5058257;28;20037;-46
2022/04/01 11:55:22;;;;;;;6.65;4.15;;;6.30;59.80;;;;;;5053417;28;20036;-48
2022/04/01 11:57:55;;;;;;;8.23;4.05;;;6.30;59.70;;;;;;5069370;28;20050;-48
2022/04/01 12:00:24;;;;;;;4.07;2.72;;;6.30;59.50;;;;;;5055425;28;20045;-50
2022/04/01 12:02:52;;;;;;;4.93;3.70;;;6.30;59.70;;;;;;5053669;28;20075;-50
2022/04/01 12:05:21;;;;;;;6.05;4.03;;;6.30;59.60;;;;;;5060611;28;20648;-50
2022/04/01 12:10:55;;;;;;;6.47;4.20;;;6.30;59.40;;;;;;5053184;28;20040;-50
2022/04/01 12:13:23;;;;;;;5.50;3.80;;;6.30;59.60;;;;;;5047822;28;20075;-51
2022/04/01 12:15:52;;;;;;;7.72;4.43;;;6.30;59.70;;;;;;5054784;28;20064;-47
2022/04/01 12:18:22;;;;;;;4.40;3.92;;;6.30;59.60;;;;;;5072527;28;20626;-50
2022/04/01 12:20:52;;;;;;;4.93;4.38;;;6.30;59.60;;;;;;5072654;28;20502;-47
2022/04/01 12:23:22;;;;;;;7.47;5.65;;;6.30;59.40;;;;;;5059511;28;20052;-49
2022/04/01 12:25:51;;;;;;;5.47;4.30;;;6.30;59.20;;;;;;5060297;28;20033;-49
2022/04/01 12:28:19;;;;;;;6.15;5.18;;;6.30;59.50;;;;;;5072484;28;20074;-50
2022/04/01 12:30:50;;;;;;;6.30;5.00;;;6.30;59.40;;;;;;5049740;28;20489;-48
2022/04/01 12:33:35;;;;;;;5.85;5.00;;;6.30;59.50;;;;;;5058653;28;20063;-49
2022/04/01 12:36:07;;;;;;;4.85;4.32;;;6.30;59.30;;;;;;5069955;28;20040;-49
2022/04/01 12:38:38;;;;;;;;;;;6.30;59.50;;;;;;5071947;28;20033;-46
2022/04/01 12:41:18;;;;;;;4.50;4.03;;;6.30;59.50;;;;;;5063579;28;19935;-50
2022/04/01 12:43:51;;;;;;;6.50;4.32;;;6.30;59.30;;;;;;5060019;28;20041;-48
2022/04/01 12:46:23;;;;;;;6.97;5.15;;;6.30;59.50;;;;;;5056350;28;20121;-49
2022/04/01 12:48:56;;;;;;;5.00;4.45;;;6.30;59.50;;;;;;5072521;28;20059;-49
2022/04/01 12:51:29;;;;;;;6.07;4.78;;;6.30;59.50;;;;;;5048902;28;20492;-46
2022/04/01 12:54:10;;;;;;;4.82;4.32;;;6.30;59.60;;;;;;5059293;28;20037;-45
2022/04/01 12:56:42;;;;;;;6.87;4.27;;;6.20;59.70;;;;;;5071391;28;20094;-45
2022/04/01 12:59:13;;;;;;;6.03;4.38;;;6.30;59.80;;;;;;5072042;28;20045;-49
2022/04/01 13:01:56;;;;;;;5.43;3.97;;;6.30;59.80;;;;;;5050127;28;20037;-46
2022/04/01 13:04:23;;;;;;;4.95;4.13;;;6.30;59.80;;;;;;5055029;28;20124;-45
2022/04/01 13:07:13;;;;;;;7.65;4.18;;;6.30;59.80;;;;;;5067219;28;20040;-46
2022/04/01 13:09:46;;;;;;;4.80;4.30;;;6.30;59.60;;;;;;5055928;28;20045;-50
2022/04/01 13:12:14;;;;;;;5.40;4.20;;;6.30;59.60;;;;;;5061973;28;20052;-47
2022/04/01 13:14:40;;;;;;;4.85;3.75;;;6.30;59.60;;;;;;5071846;28;20065;-49
2022/04/01 13:17:15;;;;;;;4.18;3.70;;;6.30;59.60;;;;;;5051177;28;20102;-46
2022/04/01 13:19:44;;;;;;;5.65;4.63;;;6.30;59.60;;;;;;5061384;28;20207;-50
2022/04/01 13:22:12;;;;;;;6.03;4.55;;;6.30;59.50;;;;;;5071260;28;20448;-47
2022/04/01 13:24:46;;;;;;;6.22;4.90;;;6.30;59.30;;;;;;5054560;28;20049;-46
2022/04/01 13:27:21;;;;;;;5.50;4.18;;;6.30;59.30;;;;;;5047000;28;20028;-46
2022/04/01 13:29:49;;;;;;;4.20;3.80;;;6.30;59.40;;;;;;5050851;28;20045;-46
2022/04/01 13:32:16;;;;;;;4.90;4.03;;;6.40;59.50;;;;;;5044536;28;20369;-47
2022/04/01 13:34:47;;;;;;;4.53;3.97;;;6.40;59.50;;;;;;5060477;28;20115;-46
2022/04/01 13:37:15;;;;;;;4.75;3.72;;;6.40;59.30;;;;;;5050541;28;20412;-48
2022/04/01 13:39:45;;;;;;;4.47;3.97;;;6.40;59.20;;;;;;5059878;28;20032;-48
2022/04/01 13:42:16;;;;;;;7.30;3.70;;;6.40;59.20;;;;;;5071422;28;20090;-47